Time;durP1;ratioP1;P1;durP2;ratioP2;P2;SDS_P1;SDS_P2;PMS_P1;PMS_P2;Temp;Humidity;BMP_temperature;BMP_pressure;BME280_temperature;BME280_humidity;BME280_pressure;Samples;Min_cycle;Max_cycle;Signal;HPM_P1;HPM_P2
2023/10/02 00:01:17;;;;;;;;;;;;;;;21.72;44.14;99895.88;5072497;28;19912;-76
2023/10/02 00:03:46;;;;;;;;;;;;;;;21.71;45.44;99891.56;5072445;28;19919;-77
2023/10/02 00:06:16;;;;;;;;;;;;;;;21.72;44.45;99885.13;5072264;28;19912;-77
2023/10/02 00:08:42;;;;;;;;;;;;;;;21.69;45.47;99887.47;5071958;28;20411;-76
2023/10/02 00:11:35;;;;;;;;;;;;;;;21.71;45.26;99890.75;5072103;28;20442;-76
2023/10/02 00:14:18;;;;;;;;;;;;;;;21.67;45.46;99884.22;5072064;28;19912;-77
2023/10/02 00:16:40;;;;;;;;;;;;;;;21.67;45.15;99889.59;5072014;28;19916;-76
2023/10/02 00:19:18;;;;;;;;;;;;;;;21.62;45.17;99890.31;5072575;28;19919;-77
2023/10/02 00:21:43;;;;;;;;;;;;;;;21.51;45.65;99891.97;5072171;28;20456;-77
2023/10/02 00:24:09;;;;;;;;;;;;;;;21.51;45.51;99897.34;5072235;28;19956;-76
2023/10/02 00:26:35;;;;;;;;;;;;;;;21.53;44.35;99897.94;5072673;28;20313;-76
2023/10/02 00:29:06;;;;;;;;;;;;;;;21.50;46.58;99901.09;5072172;28;19917;-77
2023/10/02 00:31:35;;;;;;;;;;;;;;;21.50;45.77;99897.59;5072213;28;20427;-77
2023/10/02 00:34:01;;;;;;;;;;;;;;;21.44;46.08;99909.31;5071928;28;19917;-77
2023/10/02 00:36:29;;;;;;;;;;;;;;;21.38;45.24;99903.03;5071982;28;20447;-77
2023/10/02 00:38:58;;;;;;;;;;;;;;;21.35;45.33;99903.50;5053944;28;19927;-77
2023/10/02 00:41:24;;;;;;;;;;;;;;;21.32;46.02;99903.97;5071883;28;19995;-76
2023/10/02 00:43:49;;;;;;;;;;;;;;;21.33;45.20;99900.22;5071744;28;20015;-76
2023/10/02 00:46:23;;;;;;;;;;;;;;;21.38;45.24;99902.19;5053712;28;19916;-77
2023/10/02 00:48:49;;;;;;;;;;;;;;;21.34;46.02;99896.50;5071954;28;19916;-77
2023/10/02 00:51:15;;;;;;;;;;;;;;;21.34;45.11;99893.81;5071790;28;19921;-77
2023/10/02 00:53:46;;;;;;;;;;;;;;;21.32;47.19;99903.16;5071902;28;19913;-77
2023/10/02 00:56:22;;;;;;;;;;;;;;;21.29;44.92;99896.41;5071572;28;19935;-77
2023/10/02 00:58:55;;;;;;;;;;;;;;;21.30;45.73;99898.03;5071350;28;19913;-76
2023/10/02 01:01:24;;;;;;;;;;;;;;;21.29;46.40;99904.47;5071531;28;19913;-76
2023/10/02 01:06:54;;;;;;;;;;;;;;;21.30;45.48;99903.41;5071597;28;19954;-77
2023/10/02 01:09:19;;;;;;;;;;;;;;;21.33;45.47;99908.28;5071506;28;19920;-76
2023/10/02 01:11:45;;;;;;;;;;;;;;;21.33;45.29;99905.59;5071546;28;19919;-77
2023/10/02 01:14:11;;;;;;;;;;;;;;;21.34;46.74;99904.56;5071571;28;19978;-76
2023/10/02 01:16:36;;;;;;;;;;;;;;;21.33;45.99;99904.78;5071868;28;20367;-76
2023/10/02 01:19:04;;;;;;;;;;;;;;;21.24;46.71;99899.81;5071611;28;19916;-76
2023/10/02 01:21:29;;;;;;;;;;;;;;;21.23;46.00;99900.03;5071445;28;20019;-77
2023/10/02 01:24:07;;;;;;;;;;;;;;;21.22;46.67;99898.38;5071384;28;19952;-77
2023/10/02 01:26:36;;;;;;;;;;;;;;;21.23;45.37;99900.03;5071431;28;19955;-76
2023/10/02 01:29:03;;;;;;;;;;;;;;;21.17;45.90;99906.34;5053529;28;19916;-76
2023/10/02 01:31:32;;;;;;;;;;;;;;;21.16;45.96;99904.69;5071570;28;19912;-75
2023/10/02 01:34:00;;;;;;;;;;;;;;;21.15;45.72;99898.50;5071848;28;19952;-77
2023/10/02 01:36:30;;;;;;;;;;;;;;;21.16;45.65;99897.47;5071510;28;19934;-77
2023/10/02 01:38:59;;;;;;;;;;;;;;;21.13;46.17;99906.00;5074755;28;20021;-77
2023/10/02 01:41:26;;;;;;;;;;;;;;;21.08;46.08;99895.16;5054307;28;19912;-78
2023/10/02 01:43:55;;;;;;;;;;;;;;;21.06;46.98;99891.88;5071288;28;19963;-77
2023/10/02 01:46:22;;;;;;;;;;;;;;;21.01;47.06;99899.84;5071295;28;19956;-77
2023/10/02 01:48:48;;;;;;;;;;;;;;;20.98;47.33;99911.06;5070949;28;19960;-77
2023/10/02 01:51:20;;;;;;;;;;;;;;;20.98;47.50;99907.56;5071176;28;19999;-76
2023/10/02 01:53:59;;;;;;;;;;;;;;;20.93;48.91;99914.44;5071472;28;19913;-78
2023/10/02 01:56:29;;;;;;;;;;;;;;;20.93;47.95;99909.06;5071327;28;19912;-76
2023/10/02 01:59:08;;;;;;;;;;;;;;;20.99;47.65;99911.88;5071259;28;19912;-77
2023/10/02 02:01:46;;;;;;;;;;;;;;;21.01;47.57;99915.13;5053137;28;19940;-77
2023/10/02 02:04:11;;;;;;;;;;;;;;;21.03;47.07;99915.72;5071245;28;19919;-77
2023/10/02 02:06:51;;;;;;;;;;;;;;;21.03;47.37;99913.84;5071415;28;19994;-77
2023/10/02 02:09:22;;;;;;;;;;;;;;;21.05;47.24;99918.97;5071325;28;19923;-77
2023/10/02 02:12:05;;;;;;;;;;;;;;;21.08;47.23;99923.88;5074458;28;19934;-76
2023/10/02 02:14:31;;;;;;;;;;;;;;;21.09;47.35;99920.94;5074546;28;20391;-76
2023/10/02 02:16:57;;;;;;;;;;;;;;;21.08;48.46;99922.00;5074480;28;20388;-76
2023/10/02 02:19:23;;;;;;;;;;;;;;;21.10;46.92;99919.09;5074430;28;19940;-76
2023/10/02 02:21:49;;;;;;;;;;;;;;;21.13;46.35;99923.97;5075138;28;19913;-76
2023/10/02 02:24:14;;;;;;;;;;;;;;;21.14;47.29;99923.75;5074385;28;19912;-77
2023/10/02 02:26:40;;;;;;;;;;;;;;;21.16;46.87;99915.44;5073011;28;19927;-76
2023/10/02 02:29:23;;;;;;;;;;;;;;;21.18;46.30;99924.06;5074342;28;19919;-77
2023/10/02 02:31:48;;;;;;;;;;;;;;;21.17;46.96;99923.25;5056190;28;19995;-76
2023/10/02 02:34:16;;;;;;;;;;;;;;;21.21;46.15;99934.34;5074430;28;19997;-76
2023/10/02 02:36:43;;;;;;;;;;;;;;;21.10;47.67;99936.00;5074354;28;19908;-76
2023/10/02 02:39:21;;;;;;;;;;;;;;;21.03;47.29;99934.50;5074094;28;19925;-78
2023/10/02 02:44:55;;;;;;;;;;;;;;;20.91;48.21;99938.03;5040227;28;19924;-77
2023/10/02 02:47:23;;;;;;;;;;;;;;;20.88;47.32;99943.06;5073842;28;19916;-77
2023/10/02 02:49:51;;;;;;;;;;;;;;;20.87;47.32;99936.06;5073945;28;19912;-76
2023/10/02 02:52:26;;;;;;;;;;;;;;;20.88;47.24;99938.50;5072310;28;19920;-77
2023/10/02 02:57:39;;;;;;;;;;;;;;;20.76;47.19;99943.03;5073723;28;19920;-76
2023/10/02 03:02:52;;;;;;;;;;;;;;;20.76;48.02;99937.66;5074132;28;20435;-76
2023/10/02 03:05:21;;;;;;;;;;;;;;;20.79;47.55;99941.75;5073795;28;19912;-77
2023/10/02 03:07:49;;;;;;;;;;;;;;;20.79;48.02;99934.50;5073472;28;19916;-76
2023/10/02 03:10:16;;;;;;;;;;;;;;;20.81;47.63;99939.69;5073636;28;19912;-76
2023/10/02 03:12:45;;;;;;;;;;;;;;;20.78;47.31;99935.56;5073403;28;20427;-76
2023/10/02 03:15:13;;;;;;;;;;;;;;;20.76;47.57;99937.66;5073229;28;19916;-78
2023/10/02 03:17:41;;;;;;;;;;;;;;;20.78;47.79;99942.81;5073377;28;19912;-76
2023/10/02 03:20:22;;;;;;;;;;;;;;;20.74;48.44;99938.94;5055347;28;19913;-77
2023/10/02 03:22:51;;;;;;;;;;;;;;;20.68;48.11;99943.38;5072152;28;19912;-77
2023/10/02 03:25:40;;;;;;;;;;;;;;;20.66;47.49;99948.19;5071955;28;19920;-77
2023/10/02 03:28:16;;;;;;;;;;;;;;;20.60;48.64;99946.44;5072865;28;19916;-77
2023/10/02 03:30:43;;;;;;;;;;;;;;;20.58;48.85;99953.88;5072993;28;19931;-76
2023/10/02 03:33:17;;;;;;;;;;;;;;;20.52;48.50;99957.50;5072956;28;20404;-76
2023/10/02 03:36:10;;;;;;;;;;;;;;;20.52;47.21;99955.63;5072890;28;19913;-76
2023/10/02 03:38:41;;;;;;;;;;;;;;;20.45;49.44;99952.25;5071792;28;19951;-77
2023/10/02 03:41:08;;;;;;;;;;;;;;;20.43;49.47;99958.91;5073181;28;19912;-77
2023/10/02 03:43:34;;;;;;;;;;;;;;;20.39;48.19;99957.69;5072830;28;19999;-77
2023/10/02 03:46:06;;;;;;;;;;;;;;;20.27;50.52;99963.06;5071705;28;20357;-77
2023/10/02 03:48:36;;;;;;;;;;;;;;;20.30;49.67;99966.09;5071601;28;19917;-76
2023/10/02 03:51:05;;;;;;;;;;;;;;;20.35;49.49;99970.75;5072570;28;20008;-76
2023/10/02 03:53:30;;;;;;;;;;;;;;;20.27;50.80;99963.06;5073150;28;19912;-77
2023/10/02 03:56:33;;;;;;;;;;;;;;;20.25;50.08;99968.66;5072593;28;20312;-77
2023/10/02 03:58:44;;;;;;;;;;;;;;;20.25;48.63;99976.69;5072496;28;19904;-76
2023/10/02 04:01:09;;;;;;;;;;;;;;;20.26;50.37;99981.00;5072522;28;19916;-76
2023/10/02 04:03:52;;;;;;;;;;;;;;;20.22;49.39;99976.34;5072520;28;20386;-78
2023/10/02 04:06:33;;;;;;;;;;;;;;;20.17;49.45;99977.03;5071194;28;19952;-77
2023/10/02 04:11:42;;;;;;;;;;;;;;;20.15;49.90;99981.78;5072195;28;19996;-77
2023/10/02 04:14:17;;;;;;;;;;;;;;;20.13;49.49;99985.75;5072091;28;19956;-76
2023/10/02 04:16:46;;;;;;;;;;;;;;;20.18;49.42;99984.03;5072161;28;19912;-76
2023/10/02 04:19:11;;;;;;;;;;;;;;;20.21;49.78;99983.56;5072293;28;20448;-76
2023/10/02 04:21:37;;;;;;;;;;;;;;;20.21;49.92;99986.25;5054300;28;19962;-76
2023/10/02 04:24:09;;;;;;;;;;;;;;;20.21;48.60;99996.97;5071993;28;20325;-76
2023/10/02 04:26:34;;;;;;;;;;;;;;;20.17;49.09;99995.78;5072181;28;20410;-77
2023/10/02 04:29:14;;;;;;;;;;;;;;;20.14;49.64;99995.44;5071911;28;19956;-76
2023/10/02 04:31:41;;;;;;;;;;;;;;;20.13;49.37;99993.81;5072357;28;19913;-76
2023/10/02 04:34:24;;;;;;;;;;;;;;;20.08;50.21;99993.66;5071800;28;19943;-76
2023/10/02 04:36:51;;;;;;;;;;;;;;;20.09;49.97;100004.16;5072224;28;19913;-76
2023/10/02 04:39:52;;;;;;;;;;;;;;;20.13;49.10;100008.03;5072074;28;20305;-76
2023/10/02 04:42:19;;;;;;;;;;;;;;;20.18;49.28;100015.38;5071837;28;19912;-76
2023/10/02 04:44:48;;;;;;;;;;;;;;;20.11;50.23;100010.13;5071729;28;19999;-76
2023/10/02 04:47:17;;;;;;;;;;;;;;;20.03;51.03;100021.13;5071756;28;19932;-76
2023/10/02 04:55:25;;;;;;;;;;;;;;;19.91;51.13;100017.59;5072134;28;19919;-77
2023/10/02 04:58:04;;;;;;;;;;;;;;;19.91;50.46;100015.72;5072129;28;20351;-77
2023/10/02 05:00:35;;;;;;;;;;;;;;;19.92;50.00;100016.53;5070578;28;19912;-76
2023/10/02 05:03:25;;;;;;;;;;;;;;;19.95;50.48;100018.78;5071792;28;19992;-76
2023/10/02 05:05:53;;;;;;;;;;;;;;;19.97;50.37;100027.41;5071763;28;19913;-77
2023/10/02 05:08:19;;;;;;;;;;;;;;;19.98;51.46;100023.69;5071502;28;20364;-76
2023/10/02 05:10:47;;;;;;;;;;;;;;;19.97;51.18;100030.91;5071497;28;19912;-77
2023/10/02 05:13:13;;;;;;;;;;;;;;;19.97;49.59;100030.09;5071493;28;19956;-76
2023/10/02 05:16:06;;;;;;;;;;;;;;;19.97;51.64;100030.91;5071615;28;19970;-78
2023/10/02 05:18:24;;;;;;;;;;;;;;;19.96;51.85;100037.31;5071489;28;19979;-77
2023/10/02 05:20:49;;;;;;;;;;;;;;;20.02;50.39;100040.13;5071628;28;19913;-76
2023/10/02 05:23:15;;;;;;;;;;;;;;;20.05;50.38;100036.97;5071494;28;19920;-75
2023/10/02 05:25:41;;;;;;;;;;;;;;;20.06;49.28;100039.44;5071848;28;19943;-76
2023/10/02 05:28:07;;;;;;;;;;;;;;;19.98;50.97;100037.06;5071395;28;19970;-77
2023/10/02 05:30:41;;;;;;;;;;;;;;;20.04;50.14;100044.22;5072921;28;19912;-76
2023/10/02 05:33:07;;;;;;;;;;;;;;;20.10;49.83;100039.84;5071852;28;19919;-76
2023/10/02 05:35:33;;;;;;;;;;;;;;;20.14;49.66;100043.69;5069905;28;19913;-76
2023/10/02 05:37:58;;;;;;;;;;;;;;;20.21;49.25;100047.09;5071368;28;19912;-78
2023/10/02 05:45:38;;;;;;;;;;;;;;;20.30;49.97;100057.25;5072226;28;19913;-76
2023/10/02 05:50:59;;;;;;;;;;;;;;;20.41;49.10;100057.56;5074529;28;19925;-76
2023/10/02 05:53:26;;;;;;;;;;;;;;;20.44;49.24;100057.91;5075075;28;19912;-76
2023/10/02 05:58:32;;;;;;;;;;;;;;;20.52;48.53;100060.25;5075010;28;19912;-76
2023/10/02 06:01:03;;;;;;;;;;;;;;;20.56;49.03;100069.47;5074977;28;19939;-77
2023/10/02 06:03:35;;;;;;;;;;;;;;;20.62;48.07;100070.44;5074733;28;19917;-78
2023/10/02 06:06:15;;;;;;;;;;;;;;;20.58;48.86;100072.75;5074720;28;19960;-76
2023/10/02 06:08:41;;;;;;;;;;;;;;;20.68;48.23;100074.06;5074636;28;19924;-77
2023/10/02 06:11:25;;;;;;;;;;;;;;;20.74;47.67;100075.81;5074742;28;19912;-76
2023/10/02 06:14:10;;;;;;;;;;;;;;;20.76;47.86;100087.13;5074583;28;19913;-76
2023/10/02 06:16:37;;;;;;;;;;;;;;;20.76;47.89;100089.81;5074471;28;19946;-76
2023/10/02 06:19:03;;;;;;;;;;;;;;;20.77;48.11;100094.94;5074474;28;20408;-76
2023/10/02 06:21:32;;;;;;;;;;;;;;;20.79;47.47;100092.84;5074288;28;19951;-77
2023/10/02 06:23:58;;;;;;;;;;;;;;;20.85;47.32;100100.00;5072937;28;19919;-75
2023/10/02 06:26:29;;;;;;;;;;;;;;;20.83;48.21;100102.09;5074473;28;19919;-75
2023/10/02 06:29:13;;;;;;;;;;;;;;;20.87;47.65;100110.50;5074438;28;19916;-76
2023/10/02 06:31:42;;;;;;;;;;;;;;;20.93;47.73;100114.97;5074087;28;19996;-76
2023/10/02 06:34:08;;;;;;;;;;;;;;;21.05;46.99;100123.84;5074125;28;20397;-76
2023/10/02 06:36:45;;;;;;;;;;;;;;;21.08;47.61;100117.19;5073971;28;19909;-76
2023/10/02 06:39:10;;;;;;;;;;;;;;;21.16;47.38;100122.22;5073943;28;19982;-76
2023/10/02 06:41:36;;;;;;;;;;;;;;;21.14;47.62;100121.63;5072673;28;20385;-76
2023/10/02 06:44:14;;;;;;;;;;;;;;;21.19;47.15;100125.25;5073991;28;20278;-77
2023/10/02 06:46:52;;;;;;;;;;;;;;;21.18;46.82;100118.25;5087921;28;19949;-76
2023/10/02 06:49:17;;;;;;;;;;;;;;;21.21;46.87;100122.34;5093356;28;19963;-77
2023/10/02 06:51:49;;;;;;;;;;;;;;;21.27;46.41;100124.13;5064180;28;19952;-76
2023/10/02 06:54:14;;;;;;;;;;;;;;;21.19;46.79;100125.25;5093855;28;19955;-77
2023/10/02 06:56:43;;;;;;;;;;;;;;;21.23;46.87;100131.81;5093080;28;19924;-76
2023/10/02 06:59:09;;;;;;;;;;;;;;;21.29;46.47;100132.75;5093139;28;19999;-77
2023/10/02 07:01:35;;;;;;;;;;;;;;;21.37;46.46;100132.41;5093402;28;19916;-77
2023/10/02 07:04:09;;;;;;;;;;;;;;;21.42;46.27;100126.31;5093814;28;19941;-77
2023/10/02 07:06:38;;;;;;;;;;;;;;;21.44;46.09;100134.97;5091056;28;20449;-76
2023/10/02 07:09:13;;;;;;;;;;;;;;;21.45;46.50;100136.59;5091116;28;19947;-76
2023/10/02 07:11:41;;;;;;;;;;;;;;;21.48;46.37;100145.00;5091381;28;19916;-76
2023/10/02 07:14:06;;;;;;;;;;;;;;;21.55;45.71;100143.06;5090752;28;19923;-77
2023/10/02 07:16:35;;;;;;;;;;;;;;;21.57;46.01;100137.44;5088348;28;19924;-76
2023/10/02 07:19:00;;;;;;;;;;;;;;;21.57;45.62;100137.44;5089010;28;19927;-76
2023/10/02 07:21:30;;;;;;;;;;;;;;;21.62;45.70;100144.78;5064777;28;19916;-77
2023/10/02 07:23:55;;;;;;;;;;;;;;;21.65;45.62;100139.75;5091704;28;20003;-76
2023/10/02 07:26:45;;;;;;;;;;;;;;;21.66;45.45;100141.41;5070662;28;20012;-78
2023/10/02 07:29:06;;;;;;;;;;;;;;;21.76;45.37;100148.88;5092769;28;20458;-78
2023/10/02 07:31:32;;;;;;;;;;;;;;;21.84;44.90;100143.94;5091123;28;19916;-77
2023/10/02 07:33:57;;;;;;;;;;;;;;;21.83;45.10;100152.25;5072603;28;19916;-77
2023/10/02 07:36:26;;;;;;;;;;;;;;;21.83;44.92;100147.69;5070918;28;19921;-76
2023/10/02 07:38:53;;;;;;;;;;;;;;;21.93;44.39;100149.75;5074680;28;19912;-77
2023/10/02 07:41:25;;;;;;;;;;;;;;;21.90;44.52;100158.31;5092386;28;20003;-77
2023/10/02 07:43:52;;;;;;;;;;;;;;;21.98;44.38;100163.31;5062475;28;19971;-77
2023/10/02 07:46:21;;;;;;;;;;;;;;;22.08;44.57;100160.03;5078633;28;19916;-77
2023/10/02 07:49:10;;;;;;;;;;;;;;;22.14;44.05;100159.91;5092412;28;19946;-77
2023/10/02 07:51:38;;;;;;;;;;;;;;;22.29;43.91;100167.47;5091720;28;19926;-76
2023/10/02 07:54:03;;;;;;;;;;;;;;;22.34;43.60;100153.31;5091849;28;19927;-76
2023/10/02 07:56:29;;;;;;;;;;;;;;;22.39;43.48;100165.00;5092145;28;19916;-77
2023/10/02 07:59:01;;;;;;;;;;;;;;;22.42;43.33;100164.50;5091416;28;20389;-76
2023/10/02 08:01:27;;;;;;;;;;;;;;;22.48;43.58;100166.25;5092716;28;20308;-76
2023/10/02 08:03:55;;;;;;;;;;;;;;;22.55;43.05;100178.72;5091179;28;19923;-77
2023/10/02 08:06:22;;;;;;;;;;;;;;;22.54;42.65;100175.22;5092342;28;19920;-77
2023/10/02 08:11:37;;;;;;;;;;;;;;;22.76;42.65;100176.16;5092417;28;20384;-78
2023/10/02 08:14:02;;;;;;;;;;;;;;;22.83;42.38;100174.16;5091860;28;19912;-77
2023/10/02 08:16:32;;;;;;;;;;;;;;;22.96;42.24;100164.13;5092118;28;19966;-77
2023/10/02 08:18:59;;;;;;;;;;;;;;;23.03;42.10;100164.78;5089296;28;20377;-76
2023/10/02 08:21:46;;;;;;;;;;;;;;;23.10;42.13;100165.47;5090921;28;20427;-76
2023/10/02 08:24:11;;;;;;;;;;;;;;;23.14;41.82;100164.75;5090723;28;19969;-76
2023/10/02 08:26:40;;;;;;;;;;;;;;;23.19;42.03;100160.50;5091694;28;20312;-76
2023/10/02 08:29:08;;;;;;;;;;;;;;;23.32;41.89;100166.38;5089886;28;19931;-77
2023/10/02 08:31:35;;;;;;;;;;;;;;;23.43;41.73;100170.03;5073619;28;19913;-78
2023/10/02 08:34:05;;;;;;;;;;;;;;;23.54;41.40;100162.91;5088071;28;20323;-77
2023/10/02 08:36:31;;;;;;;;;;;;;;;23.59;41.11;100165.69;5088384;28;19916;-78
2023/10/02 08:38:57;;;;;;;;;;;;;;;23.62;41.48;100170.59;5069778;28;19916;-77
2023/10/02 08:41:22;;;;;;;;;;;;;;;23.71;41.12;100163.72;5070377;28;19919;-78
2023/10/02 08:43:47;;;;;;;;;;;;;;;23.67;40.68;100163.41;5077247;28;19920;-76
2023/10/02 08:46:21;;;;;;;;;;;;;;;23.72;41.17;100166.16;5072981;28;20379;-75
2023/10/02 08:48:56;;;;;;;;;;;;;;;23.82;40.84;100170.91;5091889;28;19920;-77
2023/10/02 08:51:34;;;;;;;;;;;;;;;23.94;40.71;100154.59;5088055;28;19984;-78
2023/10/02 08:54:05;;;;;;;;;;;;;;;24.01;40.25;100160.63;5091256;28;19981;-78
2023/10/02 08:56:43;;;;;;;;;;;;;;;24.03;40.12;100151.22;5072571;28;20011;-77
2023/10/02 08:59:19;;;;;;;;;;;;;;;24.13;39.88;100147.81;5090563;28;19998;-76
2023/10/02 09:01:48;;;;;;;;;;;;;;;24.17;40.29;100146.25;5072675;28;19916;-76
2023/10/02 09:04:28;;;;;;;;;;;;;;;24.27;40.06;100143.69;5074057;28;19975;-77
2023/10/02 09:06:58;;;;;;;;;;;;;;;24.33;39.70;100139.16;5090386;28;20011;-77
2023/10/02 09:09:27;;;;;;;;;;;;;;;24.48;39.71;100139.31;5089809;28;20018;-76
2023/10/02 09:11:59;;;;;;;;;;;;;;;24.63;39.95;100144.91;5090173;28;19923;-76
2023/10/02 09:19:41;;;;;;;;;;;;;;;24.88;38.66;100149.72;5092540;28;19922;-77
2023/10/02 09:22:12;;;;;;;;;;;;;;;24.90;38.96;100146.75;5093538;28;19916;-76
2023/10/02 09:24:38;;;;;;;;;;;;;;;24.96;38.63;100151.94;5093105;28;19916;-77
2023/10/02 09:27:23;;;;;;;;;;;;;;;25.10;38.91;100146.94;5094307;28;19931;-77
2023/10/02 09:30:19;;;;;;;;;;;;;;;25.09;38.77;100145.31;5093882;28;20389;-77
2023/10/02 09:32:51;;;;;;;;;;;;;;;25.16;38.79;100140.50;5094574;28;20324;-77
2023/10/02 09:35:29;;;;;;;;;;;;;;;25.35;38.17;100146.34;5076946;28;19920;-76
2023/10/02 09:37:55;;;;;;;;;;;;;;;25.42;38.27;100143.41;5095404;28;19920;-76
2023/10/02 09:40:26;;;;;;;;;;;;;;;25.59;38.27;100149.44;5095142;28;19912;-78
2023/10/02 09:43:00;;;;;;;;;;;;;;;25.75;38.20;100139.56;5095299;28;19912;-77
2023/10/02 09:45:34;;;;;;;;;;;;;;;25.64;38.06;100147.59;5095251;28;19912;-78
2023/10/02 09:48:00;;;;;;;;;;;;;;;25.59;37.98;100141.34;5094484;28;19959;-78
2023/10/02 09:50:29;;;;;;;;;;;;;;;25.56;37.54;100148.09;5094778;28;19970;-78
2023/10/02 09:52:59;;;;;;;;;;;;;;;25.76;37.88;100144.72;5076845;28;19920;-78
2023/10/02 09:55:34;;;;;;;;;;;;;;;25.82;37.62;100150.94;5093552;28;19917;-78
2023/10/02 09:58:03;;;;;;;;;;;;;;;25.75;37.77;100136.84;5094805;28;19912;-78
2023/10/02 10:00:37;;;;;;;;;;;;;;;25.58;38.11;100139.72;5095083;28;19916;-78
2023/10/02 10:03:23;;;;;;;;;;;;;;;25.39;38.31;100144.75;5076793;28;19916;-77
2023/10/02 10:06:16;;;;;;;;;;;;;;;25.22;38.55;100136.75;5094443;28;19919;-74
2023/10/02 10:11:37;;;;;;;;;;;;;;;24.99;39.14;100139.84;5094777;28;20400;-76
2023/10/02 10:14:35;;;;;;;;;;;;;;;24.98;39.14;100130.91;5094459;28;19916;-76
2023/10/02 10:17:02;;;;;;;;;;;;;;;25.06;38.97;100132.31;5094846;28;19916;-77
2023/10/02 10:19:31;;;;;;;;;;;;;;;25.14;38.78;100128.31;5094674;28;19912;-77
2023/10/02 10:21:56;;;;;;;;;;;;;;;25.22;38.39;100135.94;5093333;28;19912;-77
2023/10/02 10:24:51;;;;;;;;;;;;;;;25.29;38.43;100129.28;5097183;28;19923;-76
2023/10/02 10:27:35;;;;;;;;;;;;;;;25.36;37.73;100130.94;5098697;28;19912;-77
2023/10/02 10:33:20;;;;;;;;;;;;;;;25.73;36.17;100118.19;5080805;28;20320;-75
2023/10/02 10:35:51;;;;;;;;;;;;;;;25.96;35.91;100119.63;5075260;28;19943;-77
2023/10/02 10:38:26;;;;;;;;;;;;;;;26.09;35.55;100113.75;5093876;28;19916;-75
2023/10/02 10:41:01;;;;;;;;;;;;;;;26.12;35.69;100113.22;5093914;28;19912;-77
2023/10/02 10:43:55;;;;;;;;;;;;;;;26.23;35.80;100103.22;5094225;28;19984;-77
2023/10/02 10:46:23;;;;;;;;;;;;;;;26.51;35.44;100104.66;5093296;28;20003;-77
2023/10/02 10:49:08;;;;;;;;;;;;;;;26.82;34.63;100100.91;5094294;28;19920;-77
2023/10/02 10:51:34;;;;;;;;;;;;;;;27.21;34.56;100112.00;5093834;28;19920;-78
2023/10/02 10:54:25;;;;;;;;;;;;;;;27.31;34.29;100107.63;5073894;28;19916;-77
2023/10/02 10:57:19;;;;;;;;;;;;;;;27.39;33.48;100102.47;5093041;28;19916;-78
2023/10/02 10:59:45;;;;;;;;;;;;;;;27.48;33.60;100089.16;5093378;28;19919;-77
2023/10/02 11:02:12;;;;;;;;;;;;;;;27.69;33.71;100088.06;5093205;28;20362;-77
2023/10/02 11:04:50;;;;;;;;;;;;;;;27.90;32.91;100090.66;5074649;28;20359;-77
2023/10/02 11:07:19;;;;;;;;;;;;;;;28.07;31.65;100093.84;5057592;28;19923;-77
2023/10/02 11:10:14;;;;;;;;;;;;;;;28.23;33.28;100087.25;5090773;28;19916;-76
2023/10/02 11:12:39;;;;;;;;;;;;;;;28.24;31.11;100083.47;5092720;28;19951;-76
2023/10/02 11:15:43;;;;;;;;;;;;;;;28.34;32.02;100077.16;5093189;28;19916;-77
2023/10/02 11:18:18;;;;;;;;;;;;;;;28.37;31.62;100069.25;5092004;28;19920;-78
2023/10/02 11:20:50;;;;;;;;;;;;;;;28.46;32.12;100083.06;5092794;28;19916;-76
2023/10/02 11:23:45;;;;;;;;;;;;;;;28.54;31.61;100066.13;5092560;28;19931;-77
2023/10/02 11:26:13;;;;;;;;;;;;;;;28.62;29.66;100064.72;5074621;28;19969;-76
2023/10/02 11:28:44;;;;;;;;;;;;;;;28.68;32.02;100067.09;5092336;28;19927;-78
2023/10/02 11:31:45;;;;;;;;;;;;;;;28.65;30.24;100067.69;5092527;28;19923;-77
2023/10/02 11:34:11;;;;;;;;;;;;;;;28.64;30.51;100062.53;5092802;28;19920;-77
2023/10/02 11:36:38;;;;;;;;;;;;;;;28.58;29.81;100056.31;5071723;28;19927;-77
2023/10/02 11:39:16;;;;;;;;;;;;;;;28.53;31.38;100064.53;5092884;28;19916;-78
2023/10/02 11:41:41;;;;;;;;;;;;;;;28.27;31.72;100061.19;5080446;28;19923;-77
2023/10/02 11:44:08;;;;;;;;;;;;;;;28.10;31.93;100061.50;5073819;28;19912;-77
2023/10/02 11:46:33;;;;;;;;;;;;;;;27.89;31.06;100067.34;5092858;28;19912;-77
2023/10/02 11:48:58;;;;;;;;;;;;;;;27.67;30.78;100054.97;5092891;28;19973;-78
2023/10/02 11:51:28;;;;;;;;;;;;;;;27.56;31.97;100069.63;5092470;28;19920;-78
2023/10/02 11:54:05;;;;;;;;;;;;;;;27.37;31.78;100055.84;5072787;28;19963;-78
2023/10/02 11:56:31;;;;;;;;;;;;;;;27.29;32.71;100055.59;5091908;28;19915;-78
2023/10/02 11:58:57;;;;;;;;;;;;;;;27.12;32.47;100058.63;5092062;28;19928;-77
2023/10/02 12:01:23;;;;;;;;;;;;;;;26.98;32.52;100063.78;5092611;28;19952;-77
2023/10/02 12:03:57;;;;;;;;;;;;;;;26.87;32.35;100056.72;5100717;27;2000776;-78
2023/10/02 12:06:28;;;;;;;;;;;;;;;26.86;32.51;100064.03;5152729;27;19922;-77
2023/10/02 12:08:57;;;;;;;;;;;;;;;26.79;33.07;100058.09;5126040;27;19972;-78
2023/10/02 12:11:26;;;;;;;;;;;;;;;26.79;32.92;100063.50;5147820;27;19915;-78
2023/10/02 12:13:53;;;;;;;;;;;;;;;26.76;32.53;100055.13;5143085;27;19925;-79
2023/10/02 12:16:21;;;;;;;;;;;;;;;26.76;32.73;100063.25;5150431;27;19919;-77
2023/10/02 12:18:47;;;;;;;;;;;;;;;26.77;32.50;100068.38;5150367;27;19917;-78
2023/10/02 12:21:14;;;;;;;;;;;;;;;26.80;32.39;100065.13;5143173;27;19990;-77
2023/10/02 12:23:40;;;;;;;;;;;;;;;26.81;32.59;100064.06;5149828;27;19916;-76
2023/10/02 12:26:09;;;;;;;;;;;;;;;26.82;32.80;100062.97;5137433;27;19997;-75
2023/10/02 12:28:35;;;;;;;;;;;;;;;26.75;32.66;100070.53;5129360;28;19912;-78
2023/10/02 12:31:06;;;;;;;;;;;;;;;26.74;32.79;100065.38;5138498;27;20316;-78
2023/10/02 12:33:35;;;;;;;;;;;;;;;26.68;32.85;100056.44;5129412;28;20392;-77
2023/10/02 12:36:00;;;;;;;;;;;;;;;26.65;32.51;100064.31;5129318;28;19915;-77
2023/10/02 12:38:26;;;;;;;;;;;;;;;26.52;32.49;100063.75;5147705;27;19981;-78
2023/10/02 12:40:51;;;;;;;;;;;;;;;26.49;31.94;100067.00;5149458;27;20010;-77
2023/10/02 12:43:17;;;;;;;;;;;;;;;26.47;32.57;100060.25;5145970;27;19976;-77
2023/10/02 12:45:43;;;;;;;;;;;;;;;26.46;32.68;100062.13;5139900;27;19968;-75
2023/10/02 12:48:08;;;;;;;;;;;;;;;26.42;32.71;100068.34;5129078;28;20356;-76
2023/10/02 12:50:38;;;;;;;;;;;;;;;26.43;33.03;100069.97;5145106;27;19916;-76
2023/10/02 12:53:04;;;;;;;;;;;;;;;26.38;32.37;100072.69;5146571;27;19924;-78
2023/10/02 12:55:30;;;;;;;;;;;;;;;26.32;33.15;100071.03;5115078;28;19918;-75
2023/10/02 12:57:55;;;;;;;;;;;;;;;26.33;33.02;100069.97;5090481;28;19912;-76
2023/10/02 13:00:21;;;;;;;;;;;;;;;26.37;33.22;100068.34;5090163;28;19916;-77
2023/10/02 13:02:47;;;;;;;;;;;;;;;26.40;32.92;100070.53;5125469;28;20403;-78
2023/10/02 13:05:12;;;;;;;;;;;;;;;26.36;32.79;100064.03;5110778;28;19916;-77
2023/10/02 13:07:37;;;;;;;;;;;;;;;26.38;32.74;100065.38;5110498;28;20303;-76
2023/10/02 13:10:04;;;;;;;;;;;;;;;26.40;33.02;100065.09;5111815;28;19930;-76
2023/10/02 13:12:31;;;;;;;;;;;;;;;26.35;32.42;100071.31;5108422;28;19912;-76
2023/10/02 13:14:57;;;;;;;;;;;;;;;26.35;32.86;100065.91;5096809;28;19912;-77
2023/10/02 13:17:23;;;;;;;;;;;;;;;26.32;33.00;100068.31;5094551;28;19916;-75
2023/10/02 13:19:48;;;;;;;;;;;;;;;26.26;32.78;100067.50;5094581;28;19920;-78
2023/10/02 13:22:15;;;;;;;;;;;;;;;26.25;32.80;100069.38;5076761;28;19923;-77
2023/10/02 13:24:42;;;;;;;;;;;;;;;26.33;32.29;100064.56;5076203;28;19916;-78
2023/10/02 13:27:07;;;;;;;;;;;;;;;26.29;32.82;100065.06;5080445;28;19915;-78
2023/10/02 13:29:34;;;;;;;;;;;;;;;26.33;32.50;100062.66;5111375;28;20469;-78
2023/10/02 13:32:01;;;;;;;;;;;;;;;26.39;32.66;100067.00;5102991;28;20011;-78
2023/10/02 13:34:26;;;;;;;;;;;;;;;26.34;32.06;100060.78;5094220;28;19970;-77
2023/10/02 13:36:51;;;;;;;;;;;;;;;26.38;32.44;100064.56;5092516;28;19912;-76
2023/10/02 13:39:18;;;;;;;;;;;;;;;26.37;32.62;100057.53;5091961;28;19927;-78
2023/10/02 13:41:43;;;;;;;;;;;;;;;26.46;32.00;100069.44;5075283;28;19909;-78
2023/10/02 13:44:09;;;;;;;;;;;;;;;26.53;32.25;100062.69;5093933;28;19912;-77